North Kortright, New York
Current Conditions -  °F | °C
As of 5:55 AM on Friday 19 Dec 2014 (Local Time) from KNY0 Reporting Station
Overcast Overcast  
Wind Chill: 18°   Ceiling: 3900
Heat Index: 25°   Visibility: 10mi
Dew Point: 19°   Wind: 6mph
Humidity: 78%   Direction: 300°WNW
Pressure: 29.96"   Gusts: NA
Location:  42.4723°N, 74.8433°W
Report Text: KNY0 191055Z AUTO 30005KT 10SM OVC039 M04/M07 A2996 RMK AO2 T10381072
Loading
Personal Weather Stations






























Interactive Weather Map New forecast layout! Learn more

10-Day Weather Forecast

Advertisements
Track Severe Weather on mobile